Aurora, CO (80040)

4:50 AM MDT on September 20, 2014 (GMT -0600)
Stone Ridge Park | Change Station
CLOSE
Current Station
Personal Weather Station
Location: Aurora, CO
Elevation: 5597 ft
Nearby Weather Stations

Elev 5597 ft 39.69 °N, 104.77 °W | Updated 12 minutes ago

Partly Cloudy
Partly Cloudy
58.6 °F
Feels Like 58.6 °F
N
3.2
Wind Variable Wind from SSE

Today
High -- | Low -- °F
--% Chance of Precip.
Yesterday
High -- | Low -- °F
Precip. -- in
6:44 AM 6:59 PM
Waning Crescent, 13% visible
Pressure 29.93 in
Visibility 10.0 miles
Clouds Few 11000 ft
Dew Point 48 °F
Humidity 67%
Rainfall 0.00 in
Snow Depth 0 in , 1 in , 1 in
UV 0 out of 12
Pollen 7.50 out of 12
Air Quality Not available.
Flu Activity Not available.
METAR KBKF 200958Z 20005KT 10SM FEW110 15/08 A3016 RMK AO2A SLP134 T01490077

More Conditions Fewer Conditions

Pressure 29.93 in
Visibility 10.0 miles
Clouds Few 11000 ft
Dew Point 48 °F
Humidity 67%
Rainfall 0.00 in
Snow Depth 0 in , 1 in , 1 in
UV 0 out of 12
Pollen 7.50 out of 12
Air Quality Not available.
Flu Activity Not available.
METAR KBKF 200958Z 20005KT 10SM FEW110 15/08 A3016 RMK AO2A SLP134 T01490077

More Conditions Fewer Conditions

10-Day Weather Forecast

Almanac

Astronomy

Sep. 20, 2014 Rise Set
Actual Time 6:44 AM MDT 6:59 PM MDT
Civil Twilight 6:17 AM MDT 7:26 PM MDT
Nautical Twilight 5:46 AM MDT 7:57 PM MDT
Astronomical Twilight 5:14 AM MDT 8:29 PM MDT
Moon 3:26 AM MDT 5:03 PM MDT
Length of Visible Light 13h 08m
Length of Day
12h 14m
Tomorrow will be 2m 34s shorter.
Waning Crescent, 13% of the Moon is Illuminated
Today
Waning Crescent
Sep 24
New
Oct 1
First Quarter
Oct 8
Full
Oct 15
Last Quarter

Today's Extremes

State Highs State Lows

Community

WunderPhotos

Upload Photos

1,754,827 photos uploaded!

Nearby

Air Quality

  Air Quality AQ Index Pollutant
Yesterday Moderate
OZONE
Yesterday Good
PM10
Saturday Moderate
OZONE
Saturday Good
PM2.5
Sunday Good
OZONE
Sunday Good
PM2.5
Monday Moderate
PM2.5
Monday Good
OZONE

Snow Depth

Station Depth Elevation
Lone Cone 0 in 9600 ft
El Diente Peak 1 in 10200 ft
Niwot 1 in 9910 ft
Idarado 0 in 9800 ft
Columbine Pass 0 in 9400 ft

Earthquake Activity

City Distance Mag. Time & Date
No recent earthquake activity has been reported nearby.
Minimum magnitude displayed is 2.5.

Coastal Water Temperatures

Place Temperature
No Stations Reporting

Nearby Weather Stations